createdAt,value
2023-03-04T00:01:27.095Z,4.60
2023-03-04T00:03:53.681Z,4.60
2023-03-04T00:06:20.470Z,4.60
2023-03-04T00:08:47.047Z,4.50
2023-03-04T00:11:13.679Z,4.50
2023-03-04T00:13:40.289Z,4.50
2023-03-04T00:16:07.203Z,4.50
2023-03-04T00:18:33.985Z,4.60
2023-03-04T00:21:00.605Z,4.60
2023-03-04T00:23:27.372Z,4.70
2023-03-04T00:25:54.065Z,4.70
2023-03-04T00:28:20.875Z,4.70
2023-03-04T00:30:47.513Z,4.60
2023-03-04T00:33:14.119Z,4.60
2023-03-04T00:35:40.902Z,4.60
2023-03-04T00:38:07.644Z,4.60
2023-03-04T00:40:34.485Z,4.60
2023-03-04T00:43:01.086Z,4.60
2023-03-04T00:45:27.648Z,4.70
2023-03-04T00:47:54.267Z,4.70
2023-03-04T00:50:20.918Z,4.80
2023-03-04T00:52:47.551Z,4.80
2023-03-04T00:55:14.186Z,4.90
2023-03-04T00:57:40.783Z,4.90
2023-03-04T01:00:08.136Z,4.90
2023-03-04T01:02:35.161Z,5.00
2023-03-04T01:05:01.796Z,5.00
2023-03-04T01:07:28.419Z,5.00
2023-03-04T01:09:55.039Z,5.10
2023-03-04T01:12:21.683Z,5.10
2023-03-04T01:14:48.328Z,5.10
2023-03-04T01:17:14.941Z,5.10
2023-03-04T01:19:41.580Z,5.20
2023-03-04T01:22:08.232Z,5.20
2023-03-04T01:24:34.969Z,5.20
2023-03-04T01:27:01.601Z,5.10
2023-03-04T01:29:30.217Z,5.10
2023-03-04T01:31:57.201Z,5.00
2023-03-04T01:34:23.876Z,5.00
2023-03-04T01:36:50.473Z,5.00
2023-03-04T01:39:17.104Z,5.00
2023-03-04T01:41:44.025Z,5.00
2023-03-04T01:44:12.028Z,5.00
2023-03-04T01:46:40.962Z,5.00
2023-03-04T01:49:09.853Z,5.00
2023-03-04T01:51:36.528Z,5.00
2023-03-04T01:54:03.120Z,4.90
2023-03-04T01:56:35.264Z,5.00
2023-03-04T01:59:12.042Z,5.00
2023-03-04T02:01:40.679Z,4.90
2023-03-04T02:04:08.312Z,4.90
2023-03-04T02:06:38.131Z,4.90
2023-03-04T02:09:05.911Z,4.90
2023-03-04T02:11:33.392Z,5.00
2023-03-04T02:14:00.364Z,4.90
2023-03-04T02:16:27.842Z,4.90
2023-03-04T02:18:55.119Z,4.90
2023-03-04T02:21:30.573Z,5.00
2023-03-04T02:24:22.358Z,5.00
2023-03-04T02:26:49.216Z,5.00
2023-03-04T02:29:16.974Z,5.00
2023-03-04T02:31:46.751Z,5.00
2023-03-04T02:34:22.853Z,5.00
2023-03-04T02:36:52.300Z,5.00
2023-03-04T02:39:25.164Z,5.00
2023-03-04T02:41:54.103Z,5.00
2023-03-04T02:44:24.195Z,5.10
2023-03-04T02:46:51.859Z,5.10
2023-03-04T02:49:20.177Z,5.00
2023-03-04T02:51:47.072Z,5.00
2023-03-04T02:54:23.416Z,5.00
2023-03-04T02:56:55.494Z,5.00
2023-03-04T02:59:23.464Z,5.00
2023-03-04T03:01:51.036Z,5.10
2023-03-04T03:04:18.488Z,5.10
2023-03-04T03:06:45.578Z,5.10
2023-03-04T03:09:12.374Z,5.10
2023-03-04T03:11:39.313Z,5.10
2023-03-04T03:14:06.349Z,5.10
2023-03-04T03:16:33.246Z,5.10
2023-03-04T03:19:00.122Z,5.20
2023-03-04T03:21:26.981Z,5.10
2023-03-04T03:23:53.692Z,5.10
2023-03-04T03:26:20.593Z,5.00
2023-03-04T03:28:47.422Z,4.90
2023-03-04T03:31:14.454Z,4.90
2023-03-04T03:33:41.079Z,4.90
2023-03-04T03:36:08.701Z,5.00
2023-03-04T03:38:35.881Z,5.00
2023-03-04T03:41:02.457Z,5.10
2023-03-04T03:43:29.087Z,5.00
2023-03-04T03:45:55.742Z,5.10
2023-03-04T03:48:22.707Z,5.10
2023-03-04T03:50:49.294Z,5.10
2023-03-04T03:53:15.917Z,5.10
2023-03-04T03:55:42.484Z,5.10
2023-03-04T03:58:09.131Z,5.10
2023-03-04T04:00:35.796Z,5.10
2023-03-04T04:03:02.621Z,5.10
2023-03-04T04:05:29.276Z,5.10
2023-03-04T04:07:56.224Z,5.10
2023-03-04T04:10:22.973Z,5.10
2023-03-04T04:12:49.622Z,5.10
2023-03-04T04:15:16.393Z,5.20
2023-03-04T04:17:43.275Z,5.20
2023-03-04T04:20:10.442Z,5.20
2023-03-04T04:22:37.257Z,5.20
2023-03-04T04:25:04.927Z,5.20
2023-03-04T04:27:31.791Z,5.20
2023-03-04T04:29:58.456Z,5.20
2023-03-04T04:32:25.114Z,5.20
2023-03-04T04:34:51.796Z,5.20
2023-03-04T04:37:18.388Z,5.10
2023-03-04T04:39:45.012Z,5.10
2023-03-04T04:42:11.872Z,5.10
2023-03-04T04:44:38.835Z,5.10
2023-03-04T04:47:07.273Z,5.10
2023-03-04T04:49:34.043Z,5.20
2023-03-04T04:52:00.802Z,5.20
2023-03-04T04:54:27.479Z,5.20
2023-03-04T04:56:54.224Z,5.30
2023-03-04T04:59:20.880Z,5.30
2023-03-04T05:01:48.088Z,5.20
2023-03-04T05:04:14.716Z,5.20
2023-03-04T05:06:41.573Z,5.10
2023-03-04T05:09:08.224Z,5.10
2023-03-04T05:11:35.010Z,5.00
2023-03-04T05:14:01.856Z,5.10
2023-03-04T05:16:28.510Z,5.00
2023-03-04T05:18:55.132Z,5.10
2023-03-04T05:21:21.752Z,5.10
2023-03-04T05:23:48.416Z,5.10
2023-03-04T05:26:17.470Z,5.00
2023-03-04T05:28:44.561Z,5.00
2023-03-04T05:31:11.936Z,5.00
2023-03-04T05:33:38.972Z,5.00
2023-03-04T05:36:07.055Z,4.90
2023-03-04T05:38:34.248Z,4.90
2023-03-04T05:41:06.678Z,4.90
2023-03-04T05:43:35.898Z,4.80
2023-03-04T05:46:03.784Z,4.80
2023-03-04T05:48:30.685Z,4.80
2023-03-04T05:50:59.769Z,4.80
2023-03-04T05:53:26.835Z,4.80
2023-03-04T05:55:53.738Z,4.70
2023-03-04T05:58:21.245Z,4.70
2023-03-04T06:00:48.173Z,4.70
2023-03-04T06:03:17.870Z,4.70
2023-03-04T06:05:44.936Z,4.70
2023-03-04T06:08:12.887Z,4.70
2023-03-04T06:10:40.735Z,4.80
2023-03-04T06:13:08.615Z,4.80
2023-03-04T06:15:35.457Z,4.80
2023-03-04T06:18:02.153Z,4.80
2023-03-04T06:20:28.930Z,4.80
2023-03-04T06:22:55.653Z,4.90
2023-03-04T06:25:22.447Z,4.90
2023-03-04T06:27:50.709Z,4.90
2023-03-04T06:30:18.259Z,4.80
2023-03-04T06:32:46.041Z,4.80
2023-03-04T06:35:14.079Z,4.70
2023-03-04T06:37:41.060Z,4.70
2023-03-04T06:40:09.066Z,4.70
2023-03-04T06:42:37.910Z,4.80
2023-03-04T06:45:05.016Z,4.80
2023-03-04T06:47:32.073Z,4.80
2023-03-04T06:49:58.769Z,4.80
2023-03-04T06:52:25.625Z,4.90
2023-03-04T06:54:52.201Z,4.90
2023-03-04T06:57:18.794Z,4.90
2023-03-04T06:59:45.395Z,5.00
2023-03-04T07:02:13.043Z,5.00
2023-03-04T07:04:40.128Z,5.10
2023-03-04T07:07:06.809Z,5.10
2023-03-04T07:09:33.682Z,5.10
2023-03-04T07:12:00.282Z,5.10
2023-03-04T07:14:27.791Z,5.10
2023-03-04T07:16:55.088Z,5.00
2023-03-04T07:19:21.944Z,5.10
2023-03-04T07:21:48.652Z,5.10
2023-03-04T07:24:15.630Z,5.10
2023-03-04T07:26:42.511Z,5.20
2023-03-04T07:29:09.510Z,5.20
2023-03-04T07:31:36.865Z,5.20
2023-03-04T07:34:06.643Z,5.20
2023-03-04T07:36:36.171Z,5.20
2023-03-04T07:39:04.255Z,5.30
2023-03-04T07:41:31.425Z,5.20
2023-03-04T07:43:58.490Z,5.30
2023-03-04T07:46:25.396Z,5.30
2023-03-04T07:48:52.000Z,5.30
2023-03-04T07:51:20.783Z,5.30
2023-03-04T07:53:49.637Z,5.30
2023-03-04T07:56:21.126Z,5.30
2023-03-04T07:58:48.614Z,5.40
2023-03-04T08:01:18.512Z,5.40
2023-03-04T08:03:45.425Z,5.50
2023-03-04T08:06:14.473Z,5.50
2023-03-04T08:08:42.853Z,5.60
2023-03-04T08:11:15.387Z,5.60
2023-03-04T08:13:42.458Z,5.70
2023-03-04T08:16:12.553Z,5.80
2023-03-04T08:18:40.428Z,5.80
2023-03-04T08:21:12.256Z,5.90
2023-03-04T08:23:39.774Z,5.90
2023-03-04T08:26:09.065Z,6.00
2023-03-04T08:28:35.755Z,6.10
2023-03-04T08:31:02.428Z,6.10
2023-03-04T08:33:29.622Z,6.20
2023-03-04T08:35:56.430Z,6.20
2023-03-04T08:38:23.091Z,6.20
2023-03-04T08:40:54.609Z,6.20
2023-03-04T08:43:21.829Z,6.20
2023-03-04T08:45:48.684Z,6.20
2023-03-04T08:48:16.193Z,6.30
2023-03-04T08:50:44.915Z,6.30
2023-03-04T08:53:12.196Z,6.30
2023-03-04T08:55:42.888Z,6.30
2023-03-04T08:58:10.569Z,6.30
2023-03-04T09:00:39.628Z,6.40
2023-03-04T09:03:06.407Z,6.40
2023-03-04T09:05:33.270Z,6.40
2023-03-04T09:08:00.099Z,6.40
2023-03-04T09:10:29.033Z,6.40
2023-03-04T09:12:55.725Z,6.50
2023-03-04T09:15:22.370Z,6.50
2023-03-04T09:17:49.018Z,6.50
2023-03-04T09:20:15.789Z,6.50
2023-03-04T09:22:43.014Z,6.60
2023-03-04T09:25:14.233Z,6.60
2023-03-04T09:27:41.741Z,6.70
2023-03-04T09:30:10.092Z,6.80
2023-03-04T09:32:37.124Z,6.80
2023-03-04T09:35:04.420Z,6.80
2023-03-04T09:37:31.437Z,6.90
2023-03-04T09:39:58.059Z,6.90
2023-03-04T09:42:34.747Z,6.90
2023-03-04T09:45:03.029Z,6.90
2023-03-04T09:47:30.691Z,7.00
2023-03-04T09:50:03.158Z,7.00
2023-03-04T09:52:41.329Z,7.10
2023-03-04T09:55:38.991Z,7.20
2023-03-04T09:58:24.106Z,7.20
2023-03-04T10:01:21.074Z,7.20
2023-03-04T10:03:55.450Z,7.30
2023-03-04T10:06:23.227Z,7.30
2023-03-04T10:08:52.548Z,7.40
2023-03-04T10:11:45.622Z,7.40
2023-03-04T10:14:21.501Z,7.40
2023-03-04T10:17:19.325Z,7.50
2023-03-04T10:20:12.450Z,7.50
2023-03-04T10:22:43.886Z,7.50
2023-03-04T10:25:21.465Z,7.50
2023-03-04T10:27:59.145Z,7.50
2023-03-04T10:30:53.217Z,7.50
2023-03-04T10:33:22.812Z,7.60
2023-03-04T10:36:04.921Z,7.60
2023-03-04T10:38:42.449Z,7.60
2023-03-04T10:41:22.454Z,7.70
2023-03-04T10:44:08.003Z,7.70
2023-03-04T10:46:39.254Z,7.80
2023-03-04T10:49:06.723Z,7.90
2023-03-04T10:51:44.131Z,7.90
2023-03-04T10:54:25.932Z,8.00
2023-03-04T10:57:16.182Z,8.00
2023-03-04T10:59:53.624Z,8.10
2023-03-04T11:02:27.840Z,8.10
2023-03-04T11:05:06.892Z,8.10
2023-03-04T11:07:54.637Z,8.20
2023-03-04T11:10:37.496Z,8.20
2023-03-04T11:13:15.962Z,8.30
2023-03-04T11:16:03.360Z,8.40
2023-03-04T11:18:47.961Z,8.50
2023-03-04T11:21:24.049Z,8.50
2023-03-04T11:23:57.722Z,8.60
2023-03-04T11:26:47.334Z,8.60
2023-03-04T11:29:37.028Z,8.60
2023-03-04T11:32:37.492Z,8.70
2023-03-04T11:35:38.971Z,8.70
2023-03-04T11:38:15.040Z,8.70
2023-03-04T11:40:47.395Z,8.80
2023-03-04T11:43:23.733Z,8.90
2023-03-04T11:46:02.847Z,8.90
2023-03-04T11:48:49.332Z,9.00
2023-03-04T11:51:23.201Z,9.00
2023-03-04T11:54:19.012Z,9.10
2023-03-04T11:56:50.354Z,9.20
2023-03-04T11:59:38.754Z,9.20
2023-03-04T12:02:19.303Z,9.30
2023-03-04T12:05:01.621Z,9.20
2023-03-04T12:07:28.327Z,9.30
2023-03-04T12:10:18.380Z,9.40
2023-03-04T12:13:05.757Z,9.50
2023-03-04T12:16:02.335Z,9.50
2023-03-04T12:19:10.941Z,9.50
2023-03-04T12:22:17.053Z,9.50
2023-03-04T12:25:19.498Z,9.50
2023-03-04T12:27:59.476Z,9.60
2023-03-04T12:30:44.622Z,9.60
2023-03-04T12:33:24.703Z,9.70
2023-03-04T12:36:11.400Z,9.80
2023-03-04T12:39:10.137Z,9.80
2023-03-04T12:42:03.864Z,9.80
2023-03-04T12:45:00.683Z,9.70
2023-03-04T12:47:46.664Z,9.80
2023-03-04T12:50:25.318Z,9.80
2023-03-04T12:53:17.376Z,9.80
2023-03-04T12:55:47.059Z,9.80
2023-03-04T12:58:22.743Z,9.90
2023-03-04T13:00:59.393Z,9.80
2023-03-04T13:03:42.744Z,9.70
2023-03-04T13:06:30.670Z,9.80
2023-03-04T13:09:21.844Z,9.80
2023-03-04T13:12:05.644Z,9.80
2023-03-04T13:14:35.003Z,9.90
2023-03-04T13:17:36.717Z,9.90
2023-03-04T13:20:30.813Z,9.90
2023-03-04T13:23:21.804Z,9.80
2023-03-04T13:25:57.262Z,9.80
2023-03-04T13:28:33.024Z,9.90
2023-03-04T13:31:11.985Z,9.90
2023-03-04T13:33:38.669Z,10.00
2023-03-04T13:36:35.127Z,9.90
2023-03-04T13:39:23.695Z,9.90
2023-03-04T13:41:53.496Z,10.00
2023-03-04T13:44:44.030Z,10.00
2023-03-04T13:47:18.098Z,9.90
2023-03-04T13:49:44.808Z,10.00
2023-03-04T13:52:40.536Z,10.00
2023-03-04T13:55:39.975Z,10.10
2023-03-04T13:58:25.952Z,10.10
2023-03-04T14:00:55.523Z,10.10
2023-03-04T14:03:25.821Z,10.10
2023-03-04T14:06:20.157Z,10.10
2023-03-04T14:08:47.900Z,10.10
2023-03-04T14:11:17.281Z,10.20
2023-03-04T14:13:44.532Z,10.20
2023-03-04T14:16:11.388Z,10.30
2023-03-04T14:18:38.594Z,10.30
2023-03-04T14:21:06.929Z,10.20
2023-03-04T14:23:36.359Z,10.20
2023-03-04T14:26:15.216Z,10.20
2023-03-04T14:28:50.205Z,10.20
2023-03-04T14:31:19.701Z,10.20
2023-03-04T14:33:49.816Z,10.30
2023-03-04T14:36:20.361Z,10.30
2023-03-04T14:38:54.426Z,10.30
2023-03-04T14:41:39.313Z,10.30
2023-03-04T14:44:14.220Z,10.30
2023-03-04T14:46:56.854Z,10.40
2023-03-04T14:49:32.719Z,10.40
2023-03-04T14:51:59.341Z,10.30
2023-03-04T14:54:41.054Z,10.30
2023-03-04T14:57:21.506Z,10.20
2023-03-04T14:59:48.274Z,10.30
2023-03-04T15:02:19.448Z,10.30
2023-03-04T15:04:48.096Z,10.20
2023-03-04T15:07:19.679Z,10.30
2023-03-04T15:09:54.678Z,10.30
2023-03-04T15:12:30.484Z,10.30
2023-03-04T15:15:00.034Z,10.20
2023-03-04T15:17:39.596Z,10.10
2023-03-04T15:20:06.194Z,10.00
2023-03-04T15:22:34.077Z,9.90
2023-03-04T15:25:00.924Z,9.90
2023-03-04T15:27:29.876Z,9.90
2023-03-04T15:30:03.478Z,9.90
2023-03-04T15:32:30.780Z,9.90
2023-03-04T15:34:57.576Z,9.80
2023-03-04T15:37:29.254Z,9.90
2023-03-04T15:39:57.423Z,9.80
2023-03-04T15:42:24.438Z,9.80
2023-03-04T15:44:51.025Z,9.80
2023-03-04T15:47:17.820Z,9.70
2023-03-04T15:49:47.474Z,9.80
2023-03-04T15:52:19.105Z,9.80
2023-03-04T15:54:47.921Z,9.80
2023-03-04T15:57:23.710Z,9.80
2023-03-04T15:59:51.003Z,9.80
2023-03-04T16:02:24.928Z,9.90
2023-03-04T16:04:51.514Z,9.90
2023-03-04T16:07:20.835Z,9.90
2023-03-04T16:09:53.058Z,9.90
2023-03-04T16:12:19.783Z,9.80
2023-03-04T16:14:46.936Z,9.80
2023-03-04T16:17:16.182Z,9.60
2023-03-04T16:19:42.834Z,9.60
2023-03-04T16:22:15.802Z,9.70
2023-03-04T16:24:42.550Z,9.60
2023-03-04T16:27:14.908Z,9.70
2023-03-04T16:29:41.931Z,9.60
2023-03-04T16:32:10.407Z,9.60
2023-03-04T16:34:37.415Z,9.60
2023-03-04T16:37:12.650Z,9.60
2023-03-04T16:39:44.211Z,9.50
2023-03-04T16:42:16.742Z,9.50
2023-03-04T16:44:43.455Z,9.50
2023-03-04T16:47:10.158Z,9.50
2023-03-04T16:49:37.285Z,9.40
2023-03-04T16:52:05.944Z,9.40
2023-03-04T16:54:35.922Z,9.40
2023-03-04T16:57:03.055Z,9.40
2023-03-04T16:59:29.785Z,9.30
2023-03-04T17:01:56.622Z,9.30
2023-03-04T17:04:23.813Z,9.20
2023-03-04T17:06:51.537Z,9.20
2023-03-04T17:09:18.123Z,9.10
2023-03-04T17:11:44.821Z,9.00
2023-03-04T17:14:11.566Z,9.00
2023-03-04T17:16:38.206Z,8.90
2023-03-04T17:19:04.865Z,8.90
2023-03-04T17:21:31.520Z,8.80
2023-03-04T17:23:58.147Z,8.80
2023-03-04T17:26:25.039Z,8.70
2023-03-04T17:28:51.797Z,8.70
2023-03-04T17:31:20.362Z,8.60
2023-03-04T17:33:47.854Z,8.60
2023-03-04T17:36:16.683Z,8.50
2023-03-04T17:38:43.556Z,8.50
2023-03-04T17:41:15.796Z,8.50
2023-03-04T17:43:52.214Z,8.50
2023-03-04T17:46:21.797Z,8.50
2023-03-04T17:48:49.046Z,8.50
2023-03-04T17:51:15.810Z,8.50
2023-03-04T17:53:42.491Z,8.50
2023-03-04T17:56:11.465Z,8.40
2023-03-04T17:58:38.429Z,8.40
2023-03-04T18:01:16.316Z,8.40
2023-03-04T18:03:43.836Z,8.30
2023-03-04T18:06:10.543Z,8.30
2023-03-04T18:08:37.170Z,8.30
2023-03-04T18:11:04.130Z,8.20
2023-03-04T18:13:30.838Z,8.20
2023-03-04T18:15:57.775Z,8.10
2023-03-04T18:18:24.406Z,8.00
2023-03-04T18:20:58.597Z,8.00
2023-03-04T18:23:26.270Z,8.00
2023-03-04T18:25:52.935Z,8.00
2023-03-04T18:28:19.886Z,8.00
2023-03-04T18:30:46.609Z,7.90
2023-03-04T18:33:13.272Z,7.90
2023-03-04T18:35:40.040Z,7.90
2023-03-04T18:38:06.752Z,7.90
2023-03-04T18:40:33.552Z,7.80
2023-03-04T18:43:00.315Z,7.80
2023-03-04T18:45:27.415Z,7.70
2023-03-04T18:47:54.770Z,7.60
2023-03-04T18:50:24.363Z,7.50
2023-03-04T18:52:54.750Z,7.30
2023-03-04T18:55:22.313Z,7.30
2023-03-04T18:57:52.936Z,7.20
2023-03-04T19:00:23.875Z,7.10
2023-03-04T19:02:56.240Z,7.00
2023-03-04T19:05:27.581Z,6.90
2023-03-04T19:07:54.550Z,6.70
2023-03-04T19:10:21.727Z,6.60
2023-03-04T19:12:48.482Z,6.40
2023-03-04T19:15:15.921Z,6.50
2023-03-04T19:17:45.585Z,6.60
2023-03-04T19:20:13.919Z,6.50
2023-03-04T19:22:40.628Z,6.50
2023-03-04T19:25:07.956Z,6.50
2023-03-04T19:27:34.837Z,6.50
2023-03-04T19:30:01.632Z,6.40
2023-03-04T19:32:28.414Z,6.40
2023-03-04T19:34:55.128Z,6.30
2023-03-04T19:37:21.749Z,6.30
2023-03-04T19:39:52.319Z,6.20
2023-03-04T19:42:18.955Z,6.20
2023-03-04T19:44:45.546Z,6.20
2023-03-04T19:47:12.259Z,6.20
2023-03-04T19:49:38.856Z,6.20
2023-03-04T19:52:05.658Z,6.00
2023-03-04T19:54:33.517Z,5.80
2023-03-04T19:57:00.177Z,5.70
2023-03-04T19:59:26.758Z,5.70
2023-03-04T20:01:54.118Z,5.60
2023-03-04T20:04:22.517Z,5.50
2023-03-04T20:06:50.683Z,5.60
2023-03-04T20:09:18.148Z,5.50
2023-03-04T20:11:57.094Z,5.40
2023-03-04T20:14:24.656Z,5.40
2023-03-04T20:16:51.438Z,5.40
2023-03-04T20:19:17.996Z,5.30
2023-03-04T20:21:44.698Z,5.30
2023-03-04T20:24:11.681Z,5.30
2023-03-04T20:26:39.420Z,5.30
2023-03-04T20:29:06.359Z,5.20
2023-03-04T20:31:38.072Z,5.20
2023-03-04T20:34:05.593Z,5.20
2023-03-04T20:36:32.302Z,5.10
2023-03-04T20:39:06.602Z,5.10
2023-03-04T20:41:37.826Z,5.00
2023-03-04T20:44:06.269Z,5.00
2023-03-04T20:46:43.196Z,4.90
2023-03-04T20:49:16.093Z,4.80
2023-03-04T20:51:43.132Z,4.80
2023-03-04T20:54:10.880Z,4.80
2023-03-04T20:56:38.063Z,4.70
2023-03-04T20:59:08.189Z,4.60
2023-03-04T21:01:36.828Z,4.60
2023-03-04T21:04:04.294Z,4.60
2023-03-04T21:06:32.365Z,4.60
2023-03-04T21:09:05.554Z,4.60
2023-03-04T21:11:32.301Z,4.60
2023-03-04T21:13:58.918Z,4.40
2023-03-04T21:16:28.970Z,4.40
2023-03-04T21:18:55.718Z,4.40
2023-03-04T21:21:26.030Z,4.30
2023-03-04T21:23:54.464Z,4.20
2023-03-04T21:26:22.634Z,4.20
2023-03-04T21:28:50.775Z,4.20
2023-03-04T21:31:29.680Z,4.20
2023-03-04T21:34:00.063Z,4.10
2023-03-04T21:36:26.846Z,4.20
2023-03-04T21:38:53.572Z,4.20
2023-03-04T21:41:22.527Z,4.20
2023-03-04T21:43:49.632Z,4.20
2023-03-04T21:46:16.992Z,4.20
2023-03-04T21:48:44.761Z,4.20
2023-03-04T21:51:14.263Z,4.30
2023-03-04T21:53:40.975Z,4.20
2023-03-04T21:56:07.643Z,4.10
2023-03-04T21:58:35.270Z,4.20
2023-03-04T22:01:10.049Z,4.30
2023-03-04T22:03:37.093Z,4.20
2023-03-04T22:06:05.412Z,4.10
2023-03-04T22:08:32.119Z,4.10
2023-03-04T22:11:04.253Z,4.20
2023-03-04T22:13:31.543Z,4.20
2023-03-04T22:15:58.974Z,4.20
2023-03-04T22:18:26.744Z,4.10
2023-03-04T22:21:03.818Z,4.10
2023-03-04T22:23:31.008Z,4.10
2023-03-04T22:26:21.270Z,4.10
2023-03-04T22:28:48.125Z,4.10
2023-03-04T22:31:19.278Z,4.00
2023-03-04T22:33:46.524Z,4.00
2023-03-04T22:36:13.992Z,4.00
2023-03-04T22:38:41.315Z,3.90
2023-03-04T22:41:15.674Z,4.00
2023-03-04T22:43:43.152Z,3.90
2023-03-04T22:46:22.595Z,4.00
2023-03-04T22:48:50.172Z,4.00
2023-03-04T22:51:17.383Z,4.00
2023-03-04T22:53:44.661Z,3.90
2023-03-04T22:56:12.526Z,4.00
2023-03-04T22:58:39.580Z,3.90
2023-03-04T23:01:06.908Z,3.80
2023-03-04T23:03:33.946Z,3.70
2023-03-04T23:06:13.606Z,3.70
2023-03-04T23:08:42.690Z,3.70
2023-03-04T23:11:11.737Z,3.70
2023-03-04T23:13:39.379Z,3.60
2023-03-04T23:16:10.657Z,3.60
2023-03-04T23:18:38.702Z,3.70
2023-03-04T23:21:15.650Z,3.60
2023-03-04T23:23:42.567Z,3.60
2023-03-04T23:26:20.843Z,3.60
2023-03-04T23:28:47.810Z,3.60
2023-03-04T23:31:14.781Z,3.60
2023-03-04T23:33:43.084Z,3.60
2023-03-04T23:36:15.554Z,3.60
2023-03-04T23:38:47.116Z,3.60
2023-03-04T23:41:15.716Z,3.60
2023-03-04T23:43:42.600Z,3.60
2023-03-04T23:46:11.401Z,3.60
2023-03-04T23:48:39.173Z,3.60
2023-03-04T23:51:06.498Z,3.60
2023-03-04T23:53:34.523Z,3.60
2023-03-04T23:56:01.134Z,3.50
2023-03-04T23:58:27.728Z,3.50
